Time;durP1;ratioP1;P1;durP2;ratioP2;P2;SDS_P1;SDS_P2;PMS_P1;PMS_P2;Temp;Humidity;BMP_temperature;BMP_pressure;BME280_temperature;BME280_humidity;BME280_pressure;Samples;Min_cycle;Max_cycle;Signal;HPM_P1;HPM_P2
2022/06/07 00:01:57;;;;;;;;;;;21.60;56.00;;;;;;496660;240;1326;-41
2022/06/07 00:03:59;;;;;;;;;;;21.70;56.00;;;;;;496197;240;1132;-41
2022/06/07 00:06:00;;;;;;;;;;;21.70;56.00;;;;;;496151;240;1047;-41
2022/06/07 00:08:02;;;;;;;;;;;21.70;55.90;;;;;;496616;240;1162;-41
2022/06/07 00:10:03;;;;;;;;;;;21.70;56.00;;;;;;496618;240;1061;-41
2022/06/07 00:12:04;;;;;;;;;;;21.70;56.00;;;;;;496508;240;1532;-41
2022/06/07 00:14:05;;;;;;;;;;;21.60;56.00;;;;;;496420;240;1198;-41
2022/06/07 00:16:07;;;;;;;;;;;21.70;56.00;;;;;;496595;240;1156;-41
2022/06/07 00:18:08;;;;;;;;;;;21.60;56.10;;;;;;496674;240;2107;-41
2022/06/07 00:20:09;;;;;;;;;;;21.70;56.00;;;;;;496658;240;1082;-41
2022/06/07 00:22:11;;;;;;;;;;;21.60;56.00;;;;;;496597;240;1315;-41
2022/06/07 00:24:12;;;;;;;;;;;21.70;56.10;;;;;;496274;240;1203;-41
2022/06/07 00:26:13;;;;;;;;;;;21.60;56.10;;;;;;496103;240;1234;-41
2022/06/07 00:28:15;;;;;;;;;;;21.60;56.00;;;;;;496565;240;1215;-41
2022/06/07 00:30:16;;;;;;;;;;;21.60;56.10;;;;;;496639;240;1242;-41
2022/06/07 00:32:17;;;;;;;;;;;21.60;56.00;;;;;;496494;240;1163;-41
2022/06/07 00:34:19;;;;;;;;;;;21.70;56.00;;;;;;496657;240;1209;-41
2022/06/07 00:36:20;;;;;;;;;;;21.70;56.00;;;;;;496252;240;1279;-41
2022/06/07 00:38:21;;;;;;;;;;;21.70;56.00;;;;;;496431;240;2122;-41
2022/06/07 00:40:23;;;;;;;;;;;21.60;56.00;;;;;;496590;240;1069;-41
2022/06/07 00:42:24;;;;;;;;;;;21.70;56.20;;;;;;496277;240;1339;-41
2022/06/07 00:44:25;;;;;;;;;;;21.60;56.10;;;;;;496127;240;1197;-41
2022/06/07 00:46:27;;;;;;;;;;;21.60;56.20;;;;;;496503;240;1107;-41
2022/06/07 00:48:28;;;;;;;;;;;21.60;56.10;;;;;;496507;240;1032;-41
2022/06/07 00:50:30;;;;;;;;;;;21.60;56.20;;;;;;496127;240;1214;-41
2022/06/07 00:52:31;;;;;;;;;;;21.70;56.10;;;;;;496519;240;1130;-41
2022/06/07 00:54:33;;;;;;;;;;;21.70;56.10;;;;;;496636;240;999;-41
2022/06/07 00:56:34;;;;;;;;;;;21.70;56.10;;;;;;496601;240;1141;-41
2022/06/07 00:58:36;;;;;;;;;;;21.60;56.10;;;;;;496635;240;2110;-41
2022/06/07 01:00:37;;;;;;;;;;;21.70;56.10;;;;;;496561;240;1094;-41
2022/06/07 01:02:39;;;;;;;;;;;21.60;56.10;;;;;;496173;240;1246;-41
2022/06/07 01:04:40;;;;;;;;;;;21.60;56.10;;;;;;496182;240;1012;-41
2022/06/07 01:11:19;;;;;;;;;;;21.70;56.10;;;;;;496341;240;1240;-41
2022/06/07 01:13:21;;;;;;;;;;;21.70;56.10;;;;;;496162;240;1222;-41
2022/06/07 01:15:22;;;;;;;;;;;21.60;56.10;;;;;;496191;240;1197;-41
2022/06/07 01:17:23;;;;;;;;;;;21.60;56.10;;;;;;496115;240;2143;-41
2022/06/07 01:19:25;;;;;;;;;;;21.70;56.10;;;;;;496616;240;1094;-41
2022/06/07 01:21:26;;;;;;;;;;;21.70;56.20;;;;;;496566;240;974;-41
2022/06/07 01:23:28;;;;;;;;;;;21.60;56.20;;;;;;496646;240;1167;-41
2022/06/07 01:25:29;;;;;;;;;;;21.60;56.20;;;;;;496609;240;1058;-41
2022/06/07 01:27:30;;;;;;;;;;;21.60;56.20;;;;;;496156;240;1631;-41
2022/06/07 01:29:31;;;;;;;;;;;21.60;56.20;;;;;;496117;240;1157;-41
2022/06/07 01:31:33;;;;;;;;;;;21.60;56.10;;;;;;496568;240;2224;-41
2022/06/07 01:33:34;;;;;;;;;;;21.60;56.10;;;;;;496621;240;1145;-41
2022/06/07 01:35:35;;;;;;;;;;;21.60;56.10;;;;;;496599;240;1125;-41
2022/06/07 01:37:37;;;;;;;;;;;21.70;56.20;;;;;;496137;240;2190;-41
2022/06/07 01:41:57;;;;;;;;;;;21.70;56.10;;;;;;496282;240;1147;-41
2022/06/07 01:43:59;;;;;;;;;;;21.60;56.10;;;;;;496562;240;1098;-41
2022/06/07 01:46:00;;;;;;;;;;;21.70;56.20;;;;;;496402;240;1250;-41
2022/06/07 01:48:01;;;;;;;;;;;21.60;56.10;;;;;;496069;240;1207;-41
2022/06/07 01:50:03;;;;;;;;;;;21.60;56.30;;;;;;496160;240;1024;-41
2022/06/07 01:52:04;;;;;;;;;;;21.50;56.30;;;;;;496113;240;1096;-41
2022/06/07 01:54:05;;;;;;;;;;;21.60;56.20;;;;;;496574;240;1050;-41
2022/06/07 01:56:07;;;;;;;;;;;21.60;56.20;;;;;;496118;240;1395;-41
2022/06/07 01:58:08;;;;;;;;;;;21.60;56.20;;;;;;496603;240;2165;-41
2022/06/07 02:00:09;;;;;;;;;;;21.60;56.20;;;;;;496405;240;1170;-41
2022/06/07 02:02:11;;;;;;;;;;;21.60;56.20;;;;;;496625;240;1105;-41
2022/06/07 02:04:12;;;;;;;;;;;21.60;56.20;;;;;;496239;240;1057;-41
2022/06/07 02:06:13;;;;;;;;;;;21.60;56.20;;;;;;496147;240;1604;-41
2022/06/07 02:08:15;;;;;;;;;;;21.60;56.20;;;;;;496663;240;1082;-41
2022/06/07 02:10:16;;;;;;;;;;;21.70;56.10;;;;;;496442;240;1191;-41
2022/06/07 02:12:17;;;;;;;;;;;21.60;56.10;;;;;;496361;240;1093;-41
2022/06/07 02:14:19;;;;;;;;;;;21.70;56.10;;;;;;496674;240;1232;-41
2022/06/07 02:16:20;;;;;;;;;;;21.60;56.10;;;;;;496137;240;1174;-41
2022/06/07 02:18:21;;;;;;;;;;;21.70;56.10;;;;;;496462;240;2131;-41
2022/06/07 02:20:23;;;;;;;;;;;21.70;56.10;;;;;;496582;240;1206;-41
2022/06/07 02:22:24;;;;;;;;;;;21.70;56.00;;;;;;496602;240;1262;-42
2022/06/07 02:24:26;;;;;;;;;;;21.70;56.10;;;;;;496666;240;936;-41
2022/06/07 02:26:27;;;;;;;;;;;21.70;56.10;;;;;;496148;240;1659;-41
2022/06/07 02:28:28;;;;;;;;;;;21.60;56.20;;;;;;496660;240;1208;-41
2022/06/07 02:30:29;;;;;;;;;;;21.60;56.20;;;;;;496466;236;1272;-41
2022/06/07 02:32:31;;;;;;;;;;;21.60;56.20;;;;;;496211;240;1200;-41
2022/06/07 02:34:32;;;;;;;;;;;21.60;56.20;;;;;;496413;240;1074;-41
2022/06/07 02:36:33;;;;;;;;;;;21.60;56.20;;;;;;496497;240;1214;-41
2022/06/07 02:38:35;;;;;;;;;;;21.60;56.20;;;;;;496660;240;2110;-41
2022/06/07 02:40:36;;;;;;;;;;;21.70;56.10;;;;;;496445;240;1251;-41
2022/06/07 02:42:38;;;;;;;;;;;21.70;56.20;;;;;;496676;240;1064;-41
2022/06/07 02:44:40;;;;;;;;;;;21.60;56.10;;;;;;496111;240;1629;-41
2022/06/07 02:46:40;;;;;;;;;;;21.70;56.20;;;;;;496027;240;2072;-41
2022/06/07 02:48:41;;;;;;;;;;;21.70;56.20;;;;;;496096;240;1072;-41
2022/06/07 02:50:43;;;;;;;;;;;21.70;56.10;;;;;;496540;240;1106;-41
2022/06/07 02:52:44;;;;;;;;;;;21.60;56.20;;;;;;496568;240;1192;-41
2022/06/07 02:54:45;;;;;;;;;;;21.70;56.20;;;;;;496634;240;993;-42
2022/06/07 02:56:47;;;;;;;;;;;21.60;56.20;;;;;;496545;240;1423;-41
2022/06/07 02:58:48;;;;;;;;;;;21.60;56.20;;;;;;496618;240;2111;-41
2022/06/07 03:00:49;;;;;;;;;;;21.60;56.20;;;;;;496425;240;1109;-41
2022/06/07 03:02:51;;;;;;;;;;;21.60;56.20;;;;;;496175;240;1345;-41
2022/06/07 03:04:52;;;;;;;;;;;21.60;56.30;;;;;;496658;240;1191;-41
2022/06/07 03:06:53;;;;;;;;;;;21.60;56.20;;;;;;496062;240;1351;-41
2022/06/07 03:08:54;;;;;;;;;;;21.70;56.20;;;;;;496664;240;1305;-41
2022/06/07 03:10:56;;;;;;;;;;;21.60;56.20;;;;;;496382;240;1220;-41
2022/06/07 03:12:57;;;;;;;;;;;21.70;56.10;;;;;;496317;240;1284;-41
2022/06/07 03:14:58;;;;;;;;;;;21.70;56.10;;;;;;496671;240;1063;-41
2022/06/07 03:17:00;;;;;;;;;;;21.70;56.10;;;;;;496149;240;1296;-41
2022/06/07 03:19:01;;;;;;;;;;;21.70;56.20;;;;;;496638;240;2114;-41
2022/06/07 03:21:03;;;;;;;;;;;21.60;56.30;;;;;;496438;240;1120;-41
2022/06/07 03:23:04;;;;;;;;;;;21.60;56.20;;;;;;496146;240;1193;-41
2022/06/07 03:25:05;;;;;;;;;;;21.60;56.20;;;;;;496221;240;1296;-41
2022/06/07 03:27:07;;;;;;;;;;;21.70;56.10;;;;;;496592;240;1361;-41
2022/06/07 03:29:10;;;;;;;;;;;21.70;56.10;;;;;;496259;240;1188;-41
2022/06/07 03:31:09;;;;;;;;;;;21.70;56.00;;;;;;496291;240;1743;-41
2022/06/07 03:33:11;;;;;;;;;;;21.60;56.10;;;;;;496233;240;1239;-41
2022/06/07 03:35:13;;;;;;;;;;;21.60;56.20;;;;;;496098;240;1449;-41
2022/06/07 03:37:14;;;;;;;;;;;21.60;56.20;;;;;;496076;240;1246;-41
2022/06/07 03:39:15;;;;;;;;;;;21.60;56.20;;;;;;496551;240;2114;-41
2022/06/07 03:41:16;;;;;;;;;;;21.60;56.20;;;;;;496387;240;1160;-41
2022/06/07 03:43:18;;;;;;;;;;;21.60;56.30;;;;;;496589;240;1075;-41
2022/06/07 03:45:19;;;;;;;;;;;21.60;56.20;;;;;;496604;240;1537;-41
2022/06/07 03:47:21;;;;;;;;;;;21.60;56.20;;;;;;496201;240;1208;-41
2022/06/07 03:49:22;;;;;;;;;;;21.70;56.20;;;;;;496495;240;1032;-41
2022/06/07 03:51:23;;;;;;;;;;;21.70;56.20;;;;;;496489;240;1076;-41
2022/06/07 03:53:24;;;;;;;;;;;21.70;56.20;;;;;;496636;240;1164;-41
2022/06/07 03:55:26;;;;;;;;;;;21.60;56.20;;;;;;496561;240;1354;-41
2022/06/07 03:57:27;;;;;;;;;;;21.60;56.20;;;;;;496097;240;1241;-41
2022/06/07 03:59:28;;;;;;;;;;;21.60;56.20;;;;;;496169;240;2103;-41
2022/06/07 04:01:30;;;;;;;;;;;21.60;56.30;;;;;;496345;240;1370;-41
2022/06/07 04:03:31;;;;;;;;;;;21.60;56.30;;;;;;496559;240;1530;-41
2022/06/07 04:05:32;;;;;;;;;;;21.60;56.30;;;;;;496184;240;1212;-41
2022/06/07 04:09:53;;;;;;;;;;;21.70;56.20;;;;;;496549;240;1361;-41
2022/06/07 04:11:54;;;;;;;;;;;21.70;56.20;;;;;;496525;240;1215;-41
2022/06/07 04:13:56;;;;;;;;;;;21.70;56.10;;;;;;496064;240;1127;-41
2022/06/07 04:15:57;;;;;;;;;;;21.70;56.10;;;;;;496478;240;1218;-41
2022/06/07 04:17:59;;;;;;;;;;;21.70;56.20;;;;;;496345;240;1258;-41
2022/06/07 04:20:00;;;;;;;;;;;21.60;56.20;;;;;;496566;240;2110;-41
2022/06/07 04:22:01;;;;;;;;;;;21.60;56.30;;;;;;495961;240;1341;-41
2022/06/07 04:24:02;;;;;;;;;;;21.60;56.20;;;;;;496167;240;1178;-41
2022/06/07 04:26:04;;;;;;;;;;;21.60;56.20;;;;;;496507;236;1256;-41
2022/06/07 04:28:05;;;;;;;;;;;21.60;56.30;;;;;;496578;240;1208;-41
2022/06/07 04:30:06;;;;;;;;;;;21.60;56.20;;;;;;496123;240;1170;-41
2022/06/07 04:32:08;;;;;;;;;;;21.60;56.30;;;;;;496065;240;1342;-41
2022/06/07 04:34:09;;;;;;;;;;;21.60;56.40;;;;;;496461;240;1210;-41
2022/06/07 04:36:11;;;;;;;;;;;21.60;56.30;;;;;;495966;240;1259;-41
2022/06/07 04:38:12;;;;;;;;;;;21.60;56.20;;;;;;496480;240;2177;-41
2022/06/07 04:40:14;;;;;;;;;;;21.60;56.30;;;;;;496015;240;1128;-41
2022/06/07 04:42:15;;;;;;;;;;;21.60;56.30;;;;;;495991;240;1055;-41
2022/06/07 04:44:16;;;;;;;;;;;21.60;56.30;;;;;;496220;240;1275;-41
2022/06/07 04:46:18;;;;;;;;;;;21.60;56.20;;;;;;496177;240;1152;-41
2022/06/07 04:48:19;;;;;;;;;;;21.60;56.20;;;;;;495932;240;1323;-41
2022/06/07 04:50:20;;;;;;;;;;;21.60;56.20;;;;;;495986;240;1227;-41
2022/06/07 04:52:22;;;;;;;;;;;21.60;56.20;;;;;;495787;240;1252;-41
2022/06/07 04:54:23;;;;;;;;;;;21.60;56.20;;;;;;496489;240;1252;-41
2022/06/07 04:56:24;;;;;;;;;;;21.70;56.20;;;;;;496259;240;1199;-41
2022/06/07 04:58:26;;;;;;;;;;;21.70;56.10;;;;;;496004;240;2185;-41
2022/06/07 05:00:27;;;;;;;;;;;21.70;56.20;;;;;;495931;240;1529;-41
2022/06/07 05:02:28;;;;;;;;;;;21.60;56.20;;;;;;495938;240;1242;-41
2022/06/07 05:04:30;;;;;;;;;;;21.70;56.20;;;;;;496426;240;1155;-41
2022/06/07 05:06:31;;;;;;;;;;;21.70;56.10;;;;;;496240;240;1136;-41
2022/06/07 05:08:32;;;;;;;;;;;21.70;56.10;;;;;;496123;240;1164;-41
2022/06/07 05:10:34;;;;;;;;;;;21.70;56.10;;;;;;496296;240;1096;-41
2022/06/07 05:12:35;;;;;;;;;;;21.70;56.10;;;;;;496241;240;1137;-41
2022/06/07 05:14:36;;;;;;;;;;;21.70;56.20;;;;;;495833;240;1320;-41
2022/06/07 05:16:38;;;;;;;;;;;21.60;56.20;;;;;;495849;240;1160;-41
2022/06/07 05:18:39;;;;;;;;;;;21.60;56.20;;;;;;495858;240;2127;-41
2022/06/07 05:20:40;;;;;;;;;;;21.70;56.10;;;;;;495886;240;1032;-41
2022/06/07 05:22:42;;;;;;;;;;;21.70;56.10;;;;;;495789;240;1235;-41
2022/06/07 05:24:43;;;;;;;;;;;21.70;56.20;;;;;;496348;240;1159;-41
2022/06/07 05:26:45;;;;;;;;;;;21.70;56.20;;;;;;495967;240;1263;-41
2022/06/07 05:28:46;;;;;;;;;;;21.70;56.20;;;;;;495936;240;1320;-41
2022/06/07 05:30:47;;;;;;;;;;;21.70;56.30;;;;;;495879;240;1295;-41
2022/06/07 05:32:49;;;;;;;;;;;21.70;56.20;;;;;;496048;240;1180;-41
2022/06/07 05:34:50;;;;;;;;;;;21.70;56.20;;;;;;496306;240;1062;-41
2022/06/07 05:36:51;;;;;;;;;;;21.60;56.20;;;;;;496211;240;1252;-41
2022/06/07 05:38:52;;;;;;;;;;;21.60;56.20;;;;;;495970;240;2193;-41
2022/06/07 05:40:54;;;;;;;;;;;21.70;56.20;;;;;;495838;240;1047;-42
2022/06/07 05:42:56;;;;;;;;;;;21.60;56.30;;;;;;496028;240;1269;-41
2022/06/07 05:44:57;;;;;;;;;;;21.60;56.30;;;;;;495657;240;2419;-41
2022/06/07 05:46:59;;;;;;;;;;;21.60;56.30;;;;;;495680;236;1284;-41
2022/06/07 05:49:01;;;;;;;;;;;21.60;56.20;;;;;;495698;240;1216;-41
2022/06/07 05:51:02;;;;;;;;;;;21.60;56.20;;;;;;495601;240;1117;-41
2022/06/07 05:53:04;;;;;;;;;;;21.70;56.20;;;;;;495798;240;1199;-41
2022/06/07 05:55:05;;;;;;;;;;;21.70;56.20;;;;;;495713;240;1962;-41
2022/06/07 05:57:06;;;;;;;;;;;21.60;56.20;;;;;;495727;240;1087;-41
2022/06/07 05:59:08;;;;;;;;;;;21.60;56.30;;;;;;495885;240;2115;-41
2022/06/07 06:01:09;;;;;;;;;;;21.60;56.20;;;;;;495688;240;1281;-41
2022/06/07 06:03:10;;;;;;;;;;;21.70;56.20;;;;;;495445;240;1530;-41
2022/06/07 06:05:12;;;;;;;;;;;21.70;56.20;;;;;;495473;240;1043;-41
2022/06/07 06:07:13;;;;;;;;;;;21.60;56.30;;;;;;495516;240;1180;-41
2022/06/07 06:11:34;;;;;;;;;;;21.60;56.30;;;;;;495690;240;1244;-41
2022/06/07 06:13:35;;;;;;;;;;;21.60;56.20;;;;;;495566;240;1325;-41
2022/06/07 06:15:37;;;;;;;;;;;21.60;56.20;;;;;;495523;240;1091;-41
2022/06/07 06:17:38;;;;;;;;;;;21.60;56.40;;;;;;495526;240;1216;-41
2022/06/07 06:19:39;;;;;;;;;;;21.60;56.30;;;;;;495641;240;2118;-41
2022/06/07 06:21:41;;;;;;;;;;;21.60;56.40;;;;;;495556;240;1268;-41
2022/06/07 06:23:43;;;;;;;;;;;21.60;56.40;;;;;;495575;240;1293;-41
2022/06/07 06:25:43;;;;;;;;;;;21.60;56.50;;;;;;495696;240;2343;-41
2022/06/07 06:27:45;;;;;;;;;;;21.60;56.50;;;;;;495527;240;1218;-41
2022/06/07 06:29:46;;;;;;;;;;;21.60;56.40;;;;;;495570;240;1129;-41
2022/06/07 06:31:50;;;;;;;;;;;21.60;56.40;;;;;;495500;240;1183;-41
2022/06/07 06:33:49;;;;;;;;;;;21.70;56.30;;;;;;495274;240;2100;-41
2022/06/07 06:35:51;;;;;;;;;;;21.70;56.20;;;;;;495284;240;1230;-41
2022/06/07 06:37:52;;;;;;;;;;;21.70;56.30;;;;;;495357;240;1122;-41
2022/06/07 06:39:53;;;;;;;;;;;21.70;56.20;;;;;;495301;240;2178;-41
2022/06/07 06:41:55;;;;;;;;;;;21.70;56.20;;;;;;495209;240;1289;-41
2022/06/07 06:43:56;;;;;;;;;;;21.70;56.30;;;;;;495881;240;848;-41
2022/06/07 06:45:57;;;;;;;;;;;21.60;56.30;;;;;;495879;240;1234;-41
2022/06/07 06:47:59;;;;;;;;;;;21.60;56.40;;;;;;495265;240;1073;-41
2022/06/07 06:50:00;;;;;;;;;;;21.60;56.40;;;;;;495561;240;844;-41
2022/06/07 06:52:01;;;;;;;;;;;21.60;56.50;;;;;;495932;240;1210;-42
2022/06/07 06:54:03;;;;;;;;;;;21.60;56.50;;;;;;495101;240;1237;-41
2022/06/07 06:56:04;;;;;;;;;;;21.60;56.50;;;;;;494651;240;1272;-41
2022/06/07 06:58:06;;;;;;;;;;;21.60;56.40;;;;;;494844;240;1346;-41
2022/06/07 07:00:09;;;;;;;;;;;21.70;56.40;;;;;;494674;240;2194;-41
2022/06/07 07:02:08;;;;;;;;;;;21.70;56.40;;;;;;494379;240;2089;-41
2022/06/07 07:04:10;;;;;;;;;;;21.70;56.40;;;;;;494388;240;1399;-41
2022/06/07 07:06:11;;;;;;;;;;;21.70;56.40;;;;;;494515;240;1290;-41
2022/06/07 07:08:12;;;;;;;;;;;21.70;56.30;;;;;;494653;240;1423;-41
2022/06/07 07:10:14;;;;;;;;;;;21.70;56.30;;;;;;494803;240;1316;-41
2022/06/07 07:12:15;;;;;;;;;;;21.70;56.30;;;;;;494819;240;1310;-41
2022/06/07 07:14:16;;;;;;;;;;;21.70;56.30;;;;;;494675;240;1371;-41
2022/06/07 07:16:18;;;;;;;;;;;21.70;56.30;;;;;;494898;240;1201;-42
2022/06/07 07:18:19;;;;;;;;;;;21.70;56.30;;;;;;495405;240;1095;-41
2022/06/07 07:20:20;;;;;;;;;;;21.70;56.30;;;;;;495817;240;2209;-41
2022/06/07 07:22:22;;;;;;;;;;;21.70;56.40;;;;;;495281;240;1056;-41
2022/06/07 07:24:23;;;;;;;;;;;21.70;56.40;;;;;;495828;240;1100;-41
2022/06/07 07:26:25;;;;;;;;;;;21.70;56.50;;;;;;495523;240;1109;-41
2022/06/07 07:28:26;;;;;;;;;;;21.70;56.50;;;;;;495878;240;1058;-41
2022/06/07 07:30:29;;;;;;;;;;;21.70;56.50;;;;;;495823;240;1051;-41
2022/06/07 07:32:29;;;;;;;;;;;21.60;56.50;;;;;;495630;240;1390;-42
2022/06/07 07:34:30;;;;;;;;;;;21.70;56.40;;;;;;495451;240;1273;-41
2022/06/07 07:36:32;;;;;;;;;;;21.70;56.50;;;;;;495800;240;1054;-41
2022/06/07 07:38:33;;;;;;;;;;;21.70;56.50;;;;;;495805;240;1084;-41
2022/06/07 07:40:34;;;;;;;;;;;21.70;56.50;;;;;;495489;240;2182;-41
2022/06/07 07:42:36;;;;;;;;;;;21.70;56.40;;;;;;495448;240;1098;-41
2022/06/07 07:44:38;;;;;;;;;;;21.70;56.50;;;;;;495358;240;873;-41
2022/06/07 07:46:38;;;;;;;;;;;21.70;56.40;;;;;;495658;240;2100;-41
2022/06/07 07:48:40;;;;;;;;;;;21.70;56.40;;;;;;495829;240;1221;-41
2022/06/07 07:50:41;;;;;;;;;;;21.70;56.50;;;;;;495926;240;864;-41
2022/06/07 07:52:42;;;;;;;;;;;21.70;56.50;;;;;;495628;240;1056;-41
2022/06/07 07:54:44;;;;;;;;;;;21.70;56.60;;;;;;495474;240;835;-41
2022/06/07 07:56:45;;;;;;;;;;;21.70;56.60;;;;;;495175;240;1027;-41
2022/06/07 07:58:46;;;;;;;;;;;21.70;56.70;;;;;;495012;240;828;-41
2022/06/07 08:00:48;;;;;;;;;;;21.70;56.70;;;;;;495505;240;2165;-41
2022/06/07 08:02:49;;;;;;;;;;;21.70;56.70;;;;;;495822;240;1016;-41
2022/06/07 08:04:50;;;;;;;;;;;21.70;56.60;;;;;;495300;240;1182;-41
2022/06/07 08:06:52;;;;;;;;;;;21.70;56.60;;;;;;495482;240;1157;-41
2022/06/07 08:08:53;;;;;;;;;;;21.70;56.50;;;;;;495729;240;968;-42
2022/06/07 08:10:54;;;;;;;;;;;21.70;56.50;;;;;;495158;240;1132;-41
2022/06/07 08:12:56;;;;;;;;;;;21.70;56.60;;;;;;495333;240;1028;-41
2022/06/07 08:14:57;;;;;;;;;;;21.70;56.60;;;;;;495729;240;1104;-41
2022/06/07 08:16:58;;;;;;;;;;;21.70;56.70;;;;;;495126;240;1124;-41
2022/06/07 08:19:00;;;;;;;;;;;21.70;56.70;;;;;;495628;240;1235;-41
2022/06/07 08:21:01;;;;;;;;;;;21.70;56.70;;;;;;495298;240;2182;-41
2022/06/07 08:23:03;;;;;;;;;;;21.70;56.70;;;;;;495605;240;1088;-41
2022/06/07 08:25:04;;;;;;;;;;;21.70;56.70;;;;;;495545;240;882;-41
2022/06/07 08:27:06;;;;;;;;;;;21.70;56.70;;;;;;495383;240;1014;-41
2022/06/07 08:29:07;;;;;;;;;;;21.60;56.70;;;;;;495640;240;1204;-41
2022/06/07 08:31:08;;;;;;;;;;;21.70;56.70;;;;;;495566;240;2067;-41
2022/06/07 08:37:51;;;;;;;;;;;21.70;56.60;;;;;;479060;240;1517;-41
2022/06/07 08:39:52;;;;;;;;;;;21.70;56.60;;;;;;495939;240;2182;-41
2022/06/07 08:41:53;;;;;;;;;;;21.70;56.60;;;;;;496001;240;1041;-41
2022/06/07 08:43:55;;;;;;;;;;;21.70;56.70;;;;;;495492;240;1073;-41
2022/06/07 08:45:57;;;;;;;;;;;21.70;56.80;;;;;;495443;240;1164;-41
2022/06/07 08:47:57;;;;;;;;;;;21.70;56.80;;;;;;494891;240;1938;-41
2022/06/07 08:49:59;;;;;;;;;;;21.70;56.70;;;;;;494988;240;1096;-41
2022/06/07 08:52:00;;;;;;;;;;;21.70;56.70;;;;;;495556;240;835;-41
2022/06/07 08:54:02;;;;;;;;;;;21.70;56.80;;;;;;495350;240;1056;-41
2022/06/07 08:56:03;;;;;;;;;;;21.70;56.70;;;;;;495729;240;1114;-41
2022/06/07 08:58:04;;;;;;;;;;;21.70;56.60;;;;;;495294;240;885;-41
2022/06/07 09:00:05;;;;;;;;;;;21.70;56.70;;;;;;495631;240;2181;-41
2022/06/07 09:02:06;;;;;;;;;;;21.70;56.60;;;;;;495644;240;1020;-41
2022/06/07 09:04:08;;;;;;;;;;;21.70;56.70;;;;;;495912;240;864;-41
2022/06/07 09:06:09;;;;;;;;;;;21.70;56.80;;;;;;495230;240;1093;-41
2022/06/07 09:08:10;;;;;;;;;;;21.70;56.80;;;;;;495249;240;1083;-41
2022/06/07 09:12:31;;;;;;;;;;;21.70;56.80;;;;;;495211;240;1142;-41
2022/06/07 09:14:32;;;;;;;;;;;21.70;56.80;;;;;;495781;240;858;-41
2022/06/07 09:16:34;;;;;;;;;;;21.70;56.70;;;;;;495266;240;1268;-41
2022/06/07 09:18:35;;;;;;;;;;;21.80;56.60;;;;;;495645;240;1364;-41
2022/06/07 09:20:36;;;;;;;;;;;21.80;56.60;;;;;;495530;240;2185;-41
2022/06/07 09:22:38;;;;;;;;;;;21.70;56.60;;;;;;495829;240;1086;-41
2022/06/07 09:24:40;;;;;;;;;;;21.70;56.70;;;;;;495892;240;881;-41
2022/06/07 09:26:41;;;;;;;;;;;21.80;56.70;;;;;;495451;240;1231;-42
2022/06/07 09:28:42;;;;;;;;;;;21.70;56.70;;;;;;495417;240;937;-41
2022/06/07 09:30:44;;;;;;;;;;;21.80;56.80;;;;;;495373;240;1144;-41
2022/06/07 09:32:45;;;;;;;;;;;21.70;56.80;;;;;;495727;240;2096;-41
2022/06/07 09:34:46;;;;;;;;;;;21.80;56.70;;;;;;495675;240;1181;-41
2022/06/07 09:36:47;;;;;;;;;;;21.80;56.70;;;;;;495789;240;1124;-41
2022/06/07 09:38:49;;;;;;;;;;;21.80;56.70;;;;;;495818;240;812;-41
2022/06/07 09:40:50;;;;;;;;;;;21.70;56.70;;;;;;495746;240;2170;-41
2022/06/07 09:42:51;;;;;;;;;;;21.70;56.80;;;;;;495228;240;1036;-41
2022/06/07 09:44:54;;;;;;;;;;;21.70;56.80;;;;;;495844;240;820;-41
2022/06/07 09:46:54;;;;;;;;;;;21.70;56.80;;;;;;495363;240;1421;-41
2022/06/07 09:48:56;;;;;;;;;;;21.70;56.80;;;;;;495689;240;837;-41
2022/06/07 09:50:57;;;;;;;;;;;21.80;56.80;;;;;;495360;240;1780;-41
2022/06/07 09:52:58;;;;;;;;;;;21.80;56.80;;;;;;495854;240;1156;-41
2022/06/07 09:54:59;;;;;;;;;;;21.70;56.80;;;;;;495826;240;889;-41
2022/06/07 09:57:01;;;;;;;;;;;21.80;56.80;;;;;;495233;240;1074;-41
2022/06/07 09:59:02;;;;;;;;;;;21.80;56.80;;;;;;495350;240;959;-41
2022/06/07 10:01:04;;;;;;;;;;;21.80;56.80;;;;;;495264;240;2170;-41
2022/06/07 10:03:05;;;;;;;;;;;21.80;56.60;;;;;;495810;240;980;-41
2022/06/07 10:05:06;;;;;;;;;;;21.80;56.60;;;;;;495839;240;1121;-42
2022/06/07 10:07:08;;;;;;;;;;;21.80;56.60;;;;;;495878;240;1160;-41
2022/06/07 10:09:09;;;;;;;;;;;21.80;56.70;;;;;;495863;240;1187;-41
2022/06/07 10:11:10;;;;;;;;;;;21.80;56.70;;;;;;495572;240;1238;-42
2022/06/07 10:13:12;;;;;;;;;;;21.80;56.80;;;;;;496073;240;1355;-41
2022/06/07 10:15:13;;;;;;;;;;;21.80;56.80;;;;;;495539;240;2080;-41
2022/06/07 10:17:15;;;;;;;;;;;21.80;56.80;;;;;;495586;240;1366;-41
2022/06/07 10:19:16;;;;;;;;;;;21.80;56.80;;;;;;496095;240;1043;-41
2022/06/07 10:21:17;;;;;;;;;;;21.80;56.80;;;;;;495528;240;2189;-41
2022/06/07 10:23:19;;;;;;;;;;;21.70;56.80;;;;;;495558;240;840;-41
2022/06/07 10:25:20;;;;;;;;;;;21.80;56.80;;;;;;496079;240;858;-41
2022/06/07 10:27:22;;;;;;;;;;;21.80;56.70;;;;;;496095;240;882;-42
2022/06/07 10:29:23;;;;;;;;;;;21.80;56.80;;;;;;496065;240;831;-41
2022/06/07 10:31:24;;;;;;;;;;;21.80;56.80;;;;;;496000;240;916;-41
2022/06/07 10:33:25;;;;;;;;;;;21.80;56.90;;;;;;495921;240;856;-41
2022/06/07 10:35:27;;;;;;;;;;;21.80;56.80;;;;;;495339;240;1095;-42
2022/06/07 10:37:28;;;;;;;;;;;21.80;56.90;;;;;;495921;240;877;-41
2022/06/07 10:39:29;;;;;;;;;;;21.80;56.80;;;;;;495895;240;1332;-42
2022/06/07 10:41:31;;;;;;;;;;;21.80;56.80;;;;;;495923;240;2173;-41
2022/06/07 10:43:32;;;;;;;;;;;21.80;56.80;;;;;;495462;240;1147;-41
2022/06/07 10:45:33;;;;;;;;;;;21.70;56.80;;;;;;495540;240;864;-41
2022/06/07 10:47:35;;;;;;;;;;;21.80;56.80;;;;;;495574;240;1089;-42
2022/06/07 10:49:36;;;;;;;;;;;21.80;56.70;;;;;;496111;240;1280;-41
2022/06/07 10:53:57;;;;;;;;;;;21.80;56.80;;;;;;495421;240;1066;-41
2022/06/07 10:55:59;;;;;;;;;;;21.80;56.90;;;;;;495183;240;1343;-41
2022/06/07 10:58:00;;;;;;;;;;;21.80;56.90;;;;;;495544;240;2057;-41
2022/06/07 11:00:01;;;;;;;;;;;21.70;57.00;;;;;;495655;240;1076;-41
2022/06/07 11:02:02;;;;;;;;;;;21.80;56.90;;;;;;495028;240;2201;-41
2022/06/07 11:04:04;;;;;;;;;;;21.80;56.90;;;;;;495110;240;1249;-41
2022/06/07 11:10:44;;;;;;;;;;;21.80;56.90;;;;;;496123;240;1114;-41
2022/06/07 11:12:44;;;;;;;;;;;21.80;56.90;;;;;;495972;240;1295;-41
2022/06/07 11:14:46;;;;;;;;;;;21.80;56.90;;;;;;495660;240;1077;-43
2022/06/07 11:16:47;;;;;;;;;;;21.80;56.90;;;;;;495428;240;1399;-42
2022/06/07 11:18:48;;;;;;;;;;;21.80;57.00;;;;;;496186;240;822;-41
2022/06/07 11:20:50;;;;;;;;;;;21.80;57.00;;;;;;495299;240;2214;-41
2022/06/07 11:22:51;;;;;;;;;;;21.80;57.00;;;;;;495138;240;1223;-41
2022/06/07 11:24:52;;;;;;;;;;;21.80;57.00;;;;;;495618;240;1236;-41
2022/06/07 11:26:54;;;;;;;;;;;21.80;57.00;;;;;;496123;240;1229;-41
2022/06/07 11:28:56;;;;;;;;;;;21.80;57.00;;;;;;495580;240;1137;-41
2022/06/07 11:30:56;;;;;;;;;;;21.80;56.90;;;;;;495003;240;2179;-41
2022/06/07 11:32:58;;;;;;;;;;;21.80;56.80;;;;;;495186;240;1328;-41
2022/06/07 11:34:59;;;;;;;;;;;21.80;56.80;;;;;;495171;240;1169;-41
2022/06/07 11:37:00;;;;;;;;;;;21.80;56.90;;;;;;495136;240;2309;-41
2022/06/07 11:39:02;;;;;;;;;;;21.80;56.90;;;;;;495083;240;1314;-41
2022/06/07 11:43:22;;;;;;;;;;;21.80;56.90;;;;;;495139;240;1270;-41
2022/06/07 11:45:23;;;;;;;;;;;21.80;57.00;;;;;;495286;240;1219;-41
2022/06/07 11:47:25;;;;;;;;;;;21.80;57.00;;;;;;495132;240;1287;-41
2022/06/07 11:49:27;;;;;;;;;;;21.80;56.90;;;;;;495150;240;1180;-41
2022/06/07 11:51:27;;;;;;;;;;;21.80;56.90;;;;;;495901;240;2182;-42
2022/06/07 11:53:29;;;;;;;;;;;21.80;56.80;;;;;;495538;240;1102;-41
2022/06/07 11:55:30;;;;;;;;;;;21.80;56.90;;;;;;495430;240;1081;-41
2022/06/07 11:57:31;;;;;;;;;;;21.80;56.90;;;;;;495823;240;1094;-41
2022/06/07 11:59:34;;;;;;;;;;;21.80;56.90;;;;;;495931;240;1027;-41
2022/06/07 12:01:34;;;;;;;;;;;21.80;57.00;;;;;;495240;240;2201;-41
2022/06/07 12:03:36;;;;;;;;;;;21.80;57.00;;;;;;495375;240;1090;-41
2022/06/07 12:05:37;;;;;;;;;;;21.80;56.90;;;;;;494966;240;1363;-41
2022/06/07 12:07:38;;;;;;;;;;;21.80;56.80;;;;;;495367;240;1236;-41
2022/06/07 12:09:40;;;;;;;;;;;21.80;56.80;;;;;;495169;240;849;-41
2022/06/07 12:11:41;;;;;;;;;;;21.80;56.80;;;;;;495634;240;1191;-41
2022/06/07 12:13:52;;;;;;;;;;;21.80;56.80;;;;;;495597;240;848;-41
2022/06/07 12:15:53;;;;;;;;;;;21.80;56.90;;;;;;495138;240;1015;-42
2022/06/07 12:17:55;;;;;;;;;;;21.80;56.90;;;;;;495765;240;864;-41
2022/06/07 12:19:55;;;;;;;;;;;21.80;56.90;;;;;;495353;240;1395;-41
2022/06/07 12:21:57;;;;;;;;;;;21.80;56.80;;;;;;495362;240;2190;-41
2022/06/07 12:23:58;;;;;;;;;;;21.80;56.80;;;;;;495955;240;1221;-41
2022/06/07 12:25:59;;;;;;;;;;;21.80;56.80;;;;;;496057;240;1122;-41